McRae, Georgia
Current Conditions -  °F | °C
As of 3:55 PM on Tuesday 21 Oct 2014 (Local Time) from KEZM Reporting Station
Clear Clear  
Wind Chill: 79°   Ceiling: Unl
Heat Index: 79°   Visibility: 10mi
Dew Point: 52°   Wind: 7mph
Humidity: 39%   Direction: 310°NW
Pressure: 29.95"   Gusts: NA
Location:  32.07°N, 82.9°W
Report Text: KEZM 211955Z AUTO 31006KT 10SM CLR 26/11 A2995 RMK AO2 T02620111
Loading
Personal Weather Stations






























Interactive Weather Map
Tropical Storm Tracking
New forecast layout! Learn more

10-Day Weather Forecast

Advertisements
Track Severe Weather on mobile